sensor_id;sensor_type;location;lat;lon;timestamp;pressure;altitude;pressure_sealevel;temperature;humidity
29907;BME280;16776;50.958;10.994;2022-12-18T00:00:44;99857.78;;;-8.08;91.29
29907;BME280;16776;50.958;10.994;2022-12-18T00:03:12;99856.91;;;-8.09;91.43
29907;BME280;16776;50.958;10.994;2022-12-18T00:05:46;99867.56;;;-8.11;91.93
29907;BME280;16776;50.958;10.994;2022-12-18T00:08:12;99855.44;;;-8.18;91.28
29907;BME280;16776;50.958;10.994;2022-12-18T00:10:39;99861.00;;;-8.23;91.06
29907;BME280;16776;50.958;10.994;2022-12-18T00:13:05;99854.91;;;-8.26;91.39
29907;BME280;16776;50.958;10.994;2022-12-18T00:15:33;99858.97;;;-8.28;91.32
29907;BME280;16776;50.958;10.994;2022-12-18T00:18:01;99857.09;;;-8.31;91.22
29907;BME280;16776;50.958;10.994;2022-12-18T00:20:27;99861.13;;;-8.33;91.55
29907;BME280;16776;50.958;10.994;2022-12-18T00:23:02;99859.59;;;-8.31;92.17
29907;BME280;16776;50.958;10.994;2022-12-18T00:25:29;99864.41;;;-8.34;91.55
29907;BME280;16776;50.958;10.994;2022-12-18T00:27:55;99875.28;;;-8.33;91.71
29907;BME280;16776;50.958;10.994;2022-12-18T00:30:22;99876.09;;;-8.33;91.18
29907;BME280;16776;50.958;10.994;2022-12-18T00:32:48;99877.78;;;-8.33;91.82
29907;BME280;16776;50.958;10.994;2022-12-18T00:35:16;99876.97;;;-8.32;92.04
29907;BME280;16776;50.958;10.994;2022-12-18T00:37:43;99872.78;;;-8.33;91.64
29907;BME280;16776;50.958;10.994;2022-12-18T00:40:10;99880.28;;;-8.33;92.21
29907;BME280;16776;50.958;10.994;2022-12-18T00:42:37;99877.66;;;-8.35;92.01
29907;BME280;16776;50.958;10.994;2022-12-18T00:45:21;99867.91;;;-8.43;91.43
29907;BME280;16776;50.958;10.994;2022-12-18T00:47:48;99882.66;;;-8.35;92.09
29907;BME280;16776;50.958;10.994;2022-12-18T00:50:16;99873.53;;;-8.34;91.75
29907;BME280;16776;50.958;10.994;2022-12-18T00:52:43;99876.78;;;-8.35;91.58
29907;BME280;16776;50.958;10.994;2022-12-18T00:55:10;99874.41;;;-8.34;91.76
29907;BME280;16776;50.958;10.994;2022-12-18T00:57:37;99876.91;;;-8.34;91.45
29907;BME280;16776;50.958;10.994;2022-12-18T01:00:05;99881.78;;;-8.35;91.63
29907;BME280;16776;50.958;10.994;2022-12-18T01:02:32;99883.53;;;-8.34;91.38
29907;BME280;16776;50.958;10.994;2022-12-18T01:04:59;99887.66;;;-8.35;91.58
29907;BME280;16776;50.958;10.994;2022-12-18T01:07:26;99887.66;;;-8.35;91.59
29907;BME280;16776;50.958;10.994;2022-12-18T01:09:53;99890.78;;;-8.37;91.76
29907;BME280;16776;50.958;10.994;2022-12-18T01:12:20;99888.19;;;-8.39;91.54
29907;BME280;16776;50.958;10.994;2022-12-18T01:14:46;99897.22;;;-8.41;91.20
29907;BME280;16776;50.958;10.994;2022-12-18T01:17:13;99893.09;;;-8.52;90.69
29907;BME280;16776;50.958;10.994;2022-12-18T01:19:39;99912.75;;;-8.45;91.10
29907;BME280;16776;50.958;10.994;2022-12-18T01:22:07;99912.44;;;-8.49;90.49
29907;BME280;16776;50.958;10.994;2022-12-18T01:24:35;99917.25;;;-8.52;90.99
29907;BME280;16776;50.958;10.994;2022-12-18T01:27:01;99916.91;;;-8.57;91.23
29907;BME280;16776;50.958;10.994;2022-12-18T01:29:28;99910.97;;;-8.59;90.78
29907;BME280;16776;50.958;10.994;2022-12-18T01:31:57;99919.84;;;-8.63;90.68
29907;BME280;16776;50.958;10.994;2022-12-18T01:34:24;99923.78;;;-8.66;90.60
29907;BME280;16776;50.958;10.994;2022-12-18T01:36:50;99925.28;;;-8.68;90.53
29907;BME280;16776;50.958;10.994;2022-12-18T01:39:18;99922.69;;;-8.70;90.88
29907;BME280;16776;50.958;10.994;2022-12-18T01:41:47;99923.44;;;-8.71;90.45
29907;BME280;16776;50.958;10.994;2022-12-18T01:44:57;99920.19;;;-8.70;90.14
29907;BME280;16776;50.958;10.994;2022-12-18T01:47:28;99922.94;;;-8.78;90.63
29907;BME280;16776;50.958;10.994;2022-12-18T01:49:57;99922.56;;;-8.83;90.45
29907;BME280;16776;50.958;10.994;2022-12-18T01:52:25;99926.38;;;-8.88;90.43
29907;BME280;16776;50.958;10.994;2022-12-18T01:54:53;99923.56;;;-8.92;90.28
29907;BME280;16776;50.958;10.994;2022-12-18T01:57:22;99906.97;;;-9.03;90.82
29907;BME280;16776;50.958;10.994;2022-12-18T01:59:52;99922.28;;;-8.99;90.12
29907;BME280;16776;50.958;10.994;2022-12-18T02:02:20;99923.78;;;-9.01;90.83
29907;BME280;16776;50.958;10.994;2022-12-18T02:04:47;99927.78;;;-9.03;90.42
29907;BME280;16776;50.958;10.994;2022-12-18T02:07:28;99924.44;;;-9.03;90.44
29907;BME280;16776;50.958;10.994;2022-12-18T02:10:00;99927.78;;;-9.03;90.64
29907;BME280;16776;50.958;10.994;2022-12-18T02:12:35;99931.16;;;-9.02;90.78
29907;BME280;16776;50.958;10.994;2022-12-18T02:15:13;99915.31;;;-9.03;90.55
29907;BME280;16776;50.958;10.994;2022-12-18T02:17:44;99917.81;;;-9.03;90.63
29907;BME280;16776;50.958;10.994;2022-12-18T02:20:16;99914.47;;;-9.03;90.87
29907;BME280;16776;50.958;10.994;2022-12-18T02:22:48;99912.81;;;-9.03;90.49
29907;BME280;16776;50.958;10.994;2022-12-18T02:25:21;99918.59;;;-9.04;90.49
29907;BME280;16776;50.958;10.994;2022-12-18T02:27:54;99920.66;;;-9.10;90.98
29907;BME280;16776;50.958;10.994;2022-12-18T02:30:27;99915.53;;;-9.12;90.55
29907;BME280;16776;50.958;10.994;2022-12-18T02:32:56;99909.69;;;-9.12;90.56
29907;BME280;16776;50.958;10.994;2022-12-18T02:35:26;99902.84;;;-9.15;90.59
29907;BME280;16776;50.958;10.994;2022-12-18T02:37:54;99914.44;;;-9.15;90.57
29907;BME280;16776;50.958;10.994;2022-12-18T02:40:24;99913.56;;;-9.16;90.52
29907;BME280;16776;50.958;10.994;2022-12-18T02:42:53;99917.72;;;-9.16;90.91
29907;BME280;16776;50.958;10.994;2022-12-18T02:45:20;99917.72;;;-9.16;90.89
29907;BME280;16776;50.958;10.994;2022-12-18T02:47:49;99919.44;;;-9.15;90.86
29907;BME280;16776;50.958;10.994;2022-12-18T02:50:20;99911.44;;;-9.11;90.87
29907;BME280;16776;50.958;10.994;2022-12-18T02:52:56;99923.16;;;-9.10;91.43
29907;BME280;16776;50.958;10.994;2022-12-18T02:55:37;99919.88;;;-9.09;90.70
29907;BME280;16776;50.958;10.994;2022-12-18T02:58:13;99913.16;;;-9.10;90.76
29907;BME280;16776;50.958;10.994;2022-12-18T03:00:47;99905.69;;;-9.10;90.50
29907;BME280;16776;50.958;10.994;2022-12-18T03:03:21;99908.19;;;-9.10;90.50
29907;BME280;16776;50.958;10.994;2022-12-18T03:05:52;99906.44;;;-9.11;90.00
29907;BME280;16776;50.958;10.994;2022-12-18T03:08:21;99912.94;;;-9.13;90.34
29907;BME280;16776;50.958;10.994;2022-12-18T03:10:52;99914.56;;;-9.14;89.65
29907;BME280;16776;50.958;10.994;2022-12-18T03:13:24;99913.69;;;-9.14;90.71
29907;BME280;16776;50.958;10.994;2022-12-18T03:15:55;99907.94;;;-9.13;90.38
29907;BME280;16776;50.958;10.994;2022-12-18T03:18:25;99917.06;;;-9.14;90.16
29907;BME280;16776;50.958;10.994;2022-12-18T03:20:55;99916.19;;;-9.14;90.31
29907;BME280;16776;50.958;10.994;2022-12-18T03:23:27;99929.41;;;-9.15;90.24
29907;BME280;16776;50.958;10.994;2022-12-18T03:25:58;99932.78;;;-9.15;90.57
29907;BME280;16776;50.958;10.994;2022-12-18T03:28:30;99923.66;;;-9.14;90.09
29907;BME280;16776;50.958;10.994;2022-12-18T03:31:01;99937.75;;;-9.15;90.44
29907;BME280;16776;50.958;10.994;2022-12-18T03:33:30;99937.75;;;-9.15;90.23
29907;BME280;16776;50.958;10.994;2022-12-18T03:36:02;99926.84;;;-9.17;90.19
29907;BME280;16776;50.958;10.994;2022-12-18T03:38:29;99929.09;;;-9.20;90.11
29907;BME280;16776;50.958;10.994;2022-12-18T03:40:59;99935.69;;;-9.20;90.05
29907;BME280;16776;50.958;10.994;2022-12-18T03:43:36;99941.34;;;-9.23;89.94
29907;BME280;16776;50.958;10.994;2022-12-18T03:46:09;99927.13;;;-9.35;89.39
29907;BME280;16776;50.958;10.994;2022-12-18T03:48:43;99943.28;;;-9.30;89.63
29907;BME280;16776;50.958;10.994;2022-12-18T03:51:15;99937.31;;;-9.32;90.05
29907;BME280;16776;50.958;10.994;2022-12-18T03:53:48;99938.06;;;-9.33;90.35
29907;BME280;16776;50.958;10.994;2022-12-18T03:56:18;99932.13;;;-9.35;90.03
29907;BME280;16776;50.958;10.994;2022-12-18T03:58:50;99932.13;;;-9.35;90.24
29907;BME280;16776;50.958;10.994;2022-12-18T04:01:20;99934.25;;;-9.40;89.75
29907;BME280;16776;50.958;10.994;2022-12-18T04:03:49;99934.38;;;-9.38;90.24
29907;BME280;16776;50.958;10.994;2022-12-18T04:06:17;99927.22;;;-9.46;90.50
29907;BME280;16776;50.958;10.994;2022-12-18T04:08:45;99935.25;;;-9.38;90.10
29907;BME280;16776;50.958;10.994;2022-12-18T04:11:14;99929.41;;;-9.38;89.69
29907;BME280;16776;50.958;10.994;2022-12-18T04:13:42;99930.16;;;-9.39;89.71
29907;BME280;16776;50.958;10.994;2022-12-18T04:16:10;99925.81;;;-9.42;89.48
29907;BME280;16776;50.958;10.994;2022-12-18T04:18:37;99921.34;;;-9.46;89.38
29907;BME280;16776;50.958;10.994;2022-12-18T04:21:04;99922.00;;;-9.49;89.53
29907;BME280;16776;50.958;10.994;2022-12-18T04:23:32;99911.81;;;-9.52;89.15
29907;BME280;16776;50.958;10.994;2022-12-18T04:25:59;99918.09;;;-9.57;88.88
29907;BME280;16776;50.958;10.994;2022-12-18T04:28:25;99917.66;;;-9.63;89.08
29907;BME280;16776;50.958;10.994;2022-12-18T04:30:52;99929.00;;;-9.66;88.91
29907;BME280;16776;50.958;10.994;2022-12-18T04:33:20;99924.69;;;-9.69;88.83
29907;BME280;16776;50.958;10.994;2022-12-18T04:35:46;99925.97;;;-9.74;88.74
29907;BME280;16776;50.958;10.994;2022-12-18T04:38:13;99918.25;;;-9.77;88.77
29907;BME280;16776;50.958;10.994;2022-12-18T04:40:43;99919.75;;;-9.79;88.50
29907;BME280;16776;50.958;10.994;2022-12-18T04:43:09;99923.66;;;-9.82;88.64
29907;BME280;16776;50.958;10.994;2022-12-18T04:45:39;99931.88;;;-9.83;88.44
29907;BME280;16776;50.958;10.994;2022-12-18T04:48:06;99929.19;;;-9.87;88.90
29907;BME280;16776;50.958;10.994;2022-12-18T04:50:34;99934.03;;;-9.88;88.45
29907;BME280;16776;50.958;10.994;2022-12-18T04:53:00;99937.91;;;-9.92;88.60
29907;BME280;16776;50.958;10.994;2022-12-18T04:55:27;99934.44;;;-9.94;88.57
29907;BME280;16776;50.958;10.994;2022-12-18T04:57:54;99936.81;;;-9.95;88.50
29907;BME280;16776;50.958;10.994;2022-12-18T05:00:21;99937.69;;;-9.95;89.34
29907;BME280;16776;50.958;10.994;2022-12-18T05:02:48;99940.94;;;-9.96;89.62
29907;BME280;16776;50.958;10.994;2022-12-18T05:05:15;99939.31;;;-9.95;88.98
29907;BME280;16776;50.958;10.994;2022-12-18T05:07:46;99932.72;;;-9.95;89.18
29907;BME280;16776;50.958;10.994;2022-12-18T05:10:15;99938.56;;;-9.94;88.92
29907;BME280;16776;50.958;10.994;2022-12-18T05:12:41;99943.31;;;-9.97;88.81
29907;BME280;16776;50.958;10.994;2022-12-18T05:15:22;99945.59;;;-10.00;88.44
29907;BME280;16776;50.958;10.994;2022-12-18T05:17:48;99947.94;;;-10.02;88.67
29907;BME280;16776;50.958;10.994;2022-12-18T05:20:15;99941.09;;;-10.04;88.41
29907;BME280;16776;50.958;10.994;2022-12-18T05:22:43;99932.75;;;-10.05;88.27
29907;BME280;16776;50.958;10.994;2022-12-18T05:25:11;99937.66;;;-10.06;88.37
29907;BME280;16776;50.958;10.994;2022-12-18T05:27:38;99928.06;;;-10.12;88.19
29907;BME280;16776;50.958;10.994;2022-12-18T05:30:05;99928.47;;;-10.17;88.40
29907;BME280;16776;50.958;10.994;2022-12-18T05:32:32;99925.44;;;-10.25;87.79
29907;BME280;16776;50.958;10.994;2022-12-18T05:34:59;99931.56;;;-10.32;87.41
29907;BME280;16776;50.958;10.994;2022-12-18T05:37:26;99937.06;;;-10.36;87.58
29907;BME280;16776;50.958;10.994;2022-12-18T05:39:52;99937.59;;;-10.40;87.43
29907;BME280;16776;50.958;10.994;2022-12-18T05:42:22;99945.66;;;-10.42;87.84
29907;BME280;16776;50.958;10.994;2022-12-18T05:44:48;99953.78;;;-10.45;87.50
29907;BME280;16776;50.958;10.994;2022-12-18T05:47:15;99959.41;;;-10.47;87.71
29907;BME280;16776;50.958;10.994;2022-12-18T05:49:41;99962.63;;;-10.48;87.57
29907;BME280;16776;50.958;10.994;2022-12-18T05:52:08;99963.38;;;-10.49;88.57
29907;BME280;16776;50.958;10.994;2022-12-18T05:54:35;99952.53;;;-10.50;88.04
29907;BME280;16776;50.958;10.994;2022-12-18T05:57:01;99952.44;;;-10.51;88.21
29907;BME280;16776;50.958;10.994;2022-12-18T05:59:29;99956.44;;;-10.53;87.51
29907;BME280;16776;50.958;10.994;2022-12-18T06:01:56;99967.00;;;-10.56;87.66
29907;BME280;16776;50.958;10.994;2022-12-18T06:04:22;99963.56;;;-10.58;87.80
29907;BME280;16776;50.958;10.994;2022-12-18T06:06:49;99960.94;;;-10.59;88.16
29907;BME280;16776;50.958;10.994;2022-12-18T06:09:15;99968.28;;;-10.61;88.41
29907;BME280;16776;50.958;10.994;2022-12-18T06:11:42;99968.28;;;-10.61;87.80
29907;BME280;16776;50.958;10.994;2022-12-18T06:14:09;99967.28;;;-10.63;87.82
29907;BME280;16776;50.958;10.994;2022-12-18T06:16:37;99963.94;;;-10.63;87.97
29907;BME280;16776;50.958;10.994;2022-12-18T06:19:05;99957.22;;;-10.64;87.65
29907;BME280;16776;50.958;10.994;2022-12-18T06:21:32;99953.50;;;-10.70;88.37
29907;BME280;16776;50.958;10.994;2022-12-18T06:23:59;99944.81;;;-10.75;88.69
29907;BME280;16776;50.958;10.994;2022-12-18T06:26:26;99969.69;;;-10.64;87.72
29907;BME280;16776;50.958;10.994;2022-12-18T06:28:52;99977.13;;;-10.64;87.59
29907;BME280;16776;50.958;10.994;2022-12-18T06:31:19;99972.03;;;-10.66;87.85
29907;BME280;16776;50.958;10.994;2022-12-18T06:33:47;99974.53;;;-10.66;88.40
29907;BME280;16776;50.958;10.994;2022-12-18T06:36:14;99977.75;;;-10.67;87.72
29907;BME280;16776;50.958;10.994;2022-12-18T06:38:43;99951.41;;;-10.75;88.29
29907;BME280;16776;50.958;10.994;2022-12-18T06:41:11;99971.78;;;-10.69;87.55
29907;BME280;16776;50.958;10.994;2022-12-18T06:43:39;99974.19;;;-10.71;88.01
29907;BME280;16776;50.958;10.994;2022-12-18T06:46:06;99975.53;;;-10.74;87.88
29907;BME280;16776;50.958;10.994;2022-12-18T06:48:33;99978.53;;;-10.78;87.36
29907;BME280;16776;50.958;10.994;2022-12-18T06:51:01;99967.38;;;-10.83;86.65
29907;BME280;16776;50.958;10.994;2022-12-18T06:53:28;99948.78;;;-10.98;86.60
29907;BME280;16776;50.958;10.994;2022-12-18T06:55:59;99954.66;;;-10.86;86.95
29907;BME280;16776;50.958;10.994;2022-12-18T06:58:27;99946.03;;;-10.91;86.24
29907;BME280;16776;50.958;10.994;2022-12-18T07:00:53;99961.56;;;-10.94;87.53
29907;BME280;16776;50.958;10.994;2022-12-18T07:03:20;99954.75;;;-10.96;86.45
29907;BME280;16776;50.958;10.994;2022-12-18T07:05:46;99967.19;;;-10.96;87.01
29907;BME280;16776;50.958;10.994;2022-12-18T07:08:14;99967.19;;;-10.96;87.03
29907;BME280;16776;50.958;10.994;2022-12-18T07:10:43;99963.94;;;-10.95;87.87
29907;BME280;16776;50.958;10.994;2022-12-18T07:13:10;99974.00;;;-10.94;88.31
29907;BME280;16776;50.958;10.994;2022-12-18T07:15:36;99955.00;;;-11.03;88.29
29907;BME280;16776;50.958;10.994;2022-12-18T07:18:03;99976.75;;;-10.91;87.78
29907;BME280;16776;50.958;10.994;2022-12-18T07:20:30;99985.09;;;-10.90;88.14
29907;BME280;16776;50.958;10.994;2022-12-18T07:22:56;99981.06;;;-10.88;87.19
29907;BME280;16776;50.958;10.994;2022-12-18T07:25:24;99987.78;;;-10.87;87.82
29907;BME280;16776;50.958;10.994;2022-12-18T07:27:51;99981.59;;;-10.92;87.43
29907;BME280;16776;50.958;10.994;2022-12-18T07:30:17;99996.00;;;-10.88;87.39
29907;BME280;16776;50.958;10.994;2022-12-18T07:32:44;100009.22;;;-10.89;87.16
29907;BME280;16776;50.958;10.994;2022-12-18T07:35:10;100010.94;;;-10.88;87.58
29907;BME280;16776;50.958;10.994;2022-12-18T07:37:37;100012.03;;;-10.85;88.75
29907;BME280;16776;50.958;10.994;2022-12-18T07:40:04;100002.72;;;-10.55;94.31
29907;BME280;16776;50.958;10.994;2022-12-18T07:42:32;100012.50;;;-9.83;98.81
29907;BME280;16776;50.958;10.994;2022-12-18T07:45:00;100009.94;;;-9.06;100.00
29907;BME280;16776;50.958;10.994;2022-12-18T07:47:27;100014.50;;;-8.42;100.00
29907;BME280;16776;50.958;10.994;2022-12-18T07:49:56;100019.19;;;-7.87;98.63
29907;BME280;16776;50.958;10.994;2022-12-18T07:52:23;100019.38;;;-7.48;97.52
29907;BME280;16776;50.958;10.994;2022-12-18T07:54:49;100019.56;;;-7.20;95.45
29907;BME280;16776;50.958;10.994;2022-12-18T07:57:16;100023.38;;;-7.00;94.53
29907;BME280;16776;50.958;10.994;2022-12-18T07:59:45;100026.97;;;-6.83;94.17
29907;BME280;16776;50.958;10.994;2022-12-18T08:02:11;100040.97;;;-6.74;93.61
29907;BME280;16776;50.958;10.994;2022-12-18T08:04:38;100037.28;;;-6.66;92.87
29907;BME280;16776;50.958;10.994;2022-12-18T08:07:04;100032.00;;;-6.57;93.13
29907;BME280;16776;50.958;10.994;2022-12-18T08:09:33;100045.88;;;-6.49;93.41
29907;BME280;16776;50.958;10.994;2022-12-18T08:12:00;100038.84;;;-6.41;93.40
29907;BME280;16776;50.958;10.994;2022-12-18T08:14:29;100024.38;;;-6.45;93.00
29907;BME280;16776;50.958;10.994;2022-12-18T08:16:58;100057.44;;;-6.25;92.89
29907;BME280;16776;50.958;10.994;2022-12-18T08:19:24;100048.00;;;-6.15;93.10
29907;BME280;16776;50.958;10.994;2022-12-18T08:21:51;100048.56;;;-6.06;93.23
29907;BME280;16776;50.958;10.994;2022-12-18T08:24:17;100046.69;;;-5.96;93.03
29907;BME280;16776;50.958;10.994;2022-12-18T08:26:44;100031.44;;;-5.86;92.83
29907;BME280;16776;50.958;10.994;2022-12-18T08:29:10;100034.59;;;-5.75;93.08
29907;BME280;16776;50.958;10.994;2022-12-18T08:31:37;100035.94;;;-5.67;92.86
29907;BME280;16776;50.958;10.994;2022-12-18T08:34:05;100029.03;;;-5.56;92.90
29907;BME280;16776;50.958;10.994;2022-12-18T08:36:32;100035.47;;;-5.47;92.86
29907;BME280;16776;50.958;10.994;2022-12-18T08:38:58;100025.97;;;-5.37;92.83
29907;BME280;16776;50.958;10.994;2022-12-18T08:41:25;100024.97;;;-5.26;92.68
29907;BME280;16776;50.958;10.994;2022-12-18T08:43:51;100008.78;;;-5.17;92.70
29907;BME280;16776;50.958;10.994;2022-12-18T08:46:37;100009.38;;;-5.06;92.70
29907;BME280;16776;50.958;10.994;2022-12-18T08:49:06;99999.97;;;-4.95;92.46
29907;BME280;16776;50.958;10.994;2022-12-18T08:51:34;99997.09;;;-4.87;92.54
29907;BME280;16776;50.958;10.994;2022-12-18T08:54:02;100001.00;;;-4.77;92.39
29907;BME280;16776;50.958;10.994;2022-12-18T08:56:29;99997.19;;;-4.71;92.70
29907;BME280;16776;50.958;10.994;2022-12-18T08:58:56;99994.56;;;-4.57;92.74
29907;BME280;16776;50.958;10.994;2022-12-18T09:01:23;99995.13;;;-4.47;92.75
29907;BME280;16776;50.958;10.994;2022-12-18T09:03:50;99998.25;;;-4.36;92.84
29907;BME280;16776;50.958;10.994;2022-12-18T09:06:19;99993.03;;;-4.25;92.20
29907;BME280;16776;50.958;10.994;2022-12-18T09:08:45;99988.78;;;-4.09;92.75
29907;BME280;16776;50.958;10.994;2022-12-18T09:11:20;99998.03;;;-3.94;92.21
29907;BME280;16776;50.958;10.994;2022-12-18T09:13:47;99997.66;;;-3.85;92.70
29907;BME280;16776;50.958;10.994;2022-12-18T09:16:14;99992.38;;;-3.73;92.66
29907;BME280;16776;50.958;10.994;2022-12-18T09:18:40;100001.34;;;-3.62;92.23
29907;BME280;16776;50.958;10.994;2022-12-18T09:21:08;99995.13;;;-3.53;92.21
29907;BME280;16776;50.958;10.994;2022-12-18T09:23:36;99995.59;;;-3.44;91.99
29907;BME280;16776;50.958;10.994;2022-12-18T09:26:03;99993.56;;;-3.34;91.95
29907;BME280;16776;50.958;10.994;2022-12-18T09:28:30;99986.44;;;-3.25;92.26
29907;BME280;16776;50.958;10.994;2022-12-18T09:30:58;99984.47;;;-3.15;92.09
29907;BME280;16776;50.958;10.994;2022-12-18T09:33:25;99980.66;;;-3.07;91.77
29907;BME280;16776;50.958;10.994;2022-12-18T09:35:51;99979.38;;;-2.99;91.57
29907;BME280;16776;50.958;10.994;2022-12-18T09:38:19;99975.59;;;-2.90;91.33
29907;BME280;16776;50.958;10.994;2022-12-18T09:40:49;99971.84;;;-2.81;91.73
29907;BME280;16776;50.958;10.994;2022-12-18T09:43:24;99965.44;;;-2.74;91.54
29907;BME280;16776;50.958;10.994;2022-12-18T09:45:56;99956.28;;;-2.72;90.79
29907;BME280;16776;50.958;10.994;2022-12-18T09:48:31;99951.25;;;-2.72;90.16
29907;BME280;16776;50.958;10.994;2022-12-18T09:51:02;99951.09;;;-2.75;90.39
29907;BME280;16776;50.958;10.994;2022-12-18T09:53:33;99950.16;;;-2.77;90.66
29907;BME280;16776;50.958;10.994;2022-12-18T09:56:10;99946.03;;;-2.75;90.58
29907;BME280;16776;50.958;10.994;2022-12-18T09:58:42;99942.75;;;-2.74;90.67
29907;BME280;16776;50.958;10.994;2022-12-18T10:01:12;99939.50;;;-2.72;90.58
29907;BME280;16776;50.958;10.994;2022-12-18T10:03:40;99937.97;;;-2.68;91.38
29907;BME280;16776;50.958;10.994;2022-12-18T10:06:11;99938.25;;;-2.62;90.96
29907;BME280;16776;50.958;10.994;2022-12-18T10:08:43;99936.53;;;-2.63;90.95
29907;BME280;16776;50.958;10.994;2022-12-18T10:11:25;99942.69;;;-2.58;90.70
29907;BME280;16776;50.958;10.994;2022-12-18T10:13:57;99941.16;;;-2.54;91.02
29907;BME280;16776;50.958;10.994;2022-12-18T10:16:34;99935.81;;;-2.43;91.10
29907;BME280;16776;50.958;10.994;2022-12-18T10:19:22;99944.00;;;-2.29;90.65
29907;BME280;16776;50.958;10.994;2022-12-18T10:21:59;99935.19;;;-2.20;90.92
29907;BME280;16776;50.958;10.994;2022-12-18T10:24:33;99926.53;;;-2.07;91.56
29907;BME280;16776;50.958;10.994;2022-12-18T10:27:13;99918.69;;;-1.94;91.03
29907;BME280;16776;50.958;10.994;2022-12-18T10:29:41;99919.94;;;-1.84;91.19
29907;BME280;16776;50.958;10.994;2022-12-18T10:32:14;99936.47;;;-1.71;91.07
29907;BME280;16776;50.958;10.994;2022-12-18T10:34:45;99939.34;;;-1.64;91.10
29907;BME280;16776;50.958;10.994;2022-12-18T10:37:16;99933.88;;;-1.54;90.58
29907;BME280;16776;50.958;10.994;2022-12-18T10:39:43;99937.50;;;-1.47;91.22
29907;BME280;16776;50.958;10.994;2022-12-18T10:42:17;99932.00;;;-1.39;89.88
29907;BME280;16776;50.958;10.994;2022-12-18T10:44:44;99931.19;;;-1.38;90.22
29907;BME280;16776;50.958;10.994;2022-12-18T10:47:14;99937.31;;;-1.32;89.61
29907;BME280;16776;50.958;10.994;2022-12-18T10:49:50;99944.88;;;-1.32;89.78
29907;BME280;16776;50.958;10.994;2022-12-18T10:52:22;99949.81;;;-1.35;89.79
29907;BME280;16776;50.958;10.994;2022-12-18T10:54:54;99939.50;;;-1.40;89.07
29907;BME280;16776;50.958;10.994;2022-12-18T10:57:36;99949.53;;;-1.42;88.75
29907;BME280;16776;50.958;10.994;2022-12-18T11:00:23;99922.59;;;-1.62;88.55
29907;BME280;16776;50.958;10.994;2022-12-18T11:02:51;99952.03;;;-1.62;88.82
29907;BME280;16776;50.958;10.994;2022-12-18T11:05:27;99936.38;;;-1.74;88.30
29907;BME280;16776;50.958;10.994;2022-12-18T11:07:54;99946.31;;;-1.78;88.83
29907;BME280;16776;50.958;10.994;2022-12-18T11:10:28;99928.03;;;-1.91;88.39
29907;BME280;16776;50.958;10.994;2022-12-18T11:13:09;99939.06;;;-1.89;87.89
29907;BME280;16776;50.958;10.994;2022-12-18T11:15:36;99936.81;;;-2.02;88.92
29907;BME280;16776;50.958;10.994;2022-12-18T11:18:03;99933.16;;;-2.09;88.78
29907;BME280;16776;50.958;10.994;2022-12-18T11:20:32;99934.53;;;-2.15;88.41
29907;BME280;16776;50.958;10.994;2022-12-18T11:23:01;99933.31;;;-2.24;88.83
29907;BME280;16776;50.958;10.994;2022-12-18T11:25:29;99939.69;;;-2.32;89.00
29907;BME280;16776;50.958;10.994;2022-12-18T11:27:59;99944.59;;;-2.35;88.33
29907;BME280;16776;50.958;10.994;2022-12-18T11:30:29;99944.38;;;-2.39;89.09
29907;BME280;16776;50.958;10.994;2022-12-18T11:33:03;99947.69;;;-2.40;90.01
29907;BME280;16776;50.958;10.994;2022-12-18T11:35:42;99932.56;;;-2.40;89.33
29907;BME280;16776;50.958;10.994;2022-12-18T11:38:17;99930.03;;;-2.40;89.23
29907;BME280;16776;50.958;10.994;2022-12-18T11:40:49;99916.56;;;-2.41;89.40
29907;BME280;16776;50.958;10.994;2022-12-18T11:43:20;99909.97;;;-2.37;89.15
29907;BME280;16776;50.958;10.994;2022-12-18T11:45:51;99908.66;;;-2.48;89.08
29907;BME280;16776;50.958;10.994;2022-12-18T11:48:23;99911.59;;;-2.39;88.79
29907;BME280;16776;50.958;10.994;2022-12-18T11:50:53;99906.56;;;-2.39;89.73
29907;BME280;16776;50.958;10.994;2022-12-18T11:53:20;99904.03;;;-2.39;89.09
29907;BME280;16776;50.958;10.994;2022-12-18T11:55:58;99901.84;;;-2.32;89.06
29907;BME280;16776;50.958;10.994;2022-12-18T11:58:41;99901.91;;;-2.30;88.72
29907;BME280;16776;50.958;10.994;2022-12-18T12:01:17;99879.94;;;-2.33;89.42
29907;BME280;16776;50.958;10.994;2022-12-18T12:06:51;99875.25;;;-2.25;89.30
29907;BME280;16776;50.958;10.994;2022-12-18T12:09:30;99870.19;;;-2.25;89.03
29907;BME280;16776;50.958;10.994;2022-12-18T12:12:14;99868.56;;;-2.23;88.66
29907;BME280;16776;50.958;10.994;2022-12-18T12:14:51;99860.16;;;-2.24;88.42
29907;BME280;16776;50.958;10.994;2022-12-18T12:17:28;99857.59;;;-2.25;88.94
29907;BME280;16776;50.958;10.994;2022-12-18T12:20:02;99836.19;;;-2.33;88.76
29907;BME280;16776;50.958;10.994;2022-12-18T12:22:39;99855.84;;;-2.26;89.23
29907;BME280;16776;50.958;10.994;2022-12-18T12:25:20;99854.38;;;-2.21;89.22
29907;BME280;16776;50.958;10.994;2022-12-18T12:27:57;99835.19;;;-2.18;89.04
29907;BME280;16776;50.958;10.994;2022-12-18T12:30:39;99829.41;;;-2.15;89.26
29907;BME280;16776;50.958;10.994;2022-12-18T12:33:18;99835.41;;;-2.13;88.26
29907;BME280;16776;50.958;10.994;2022-12-18T12:35:55;99843.75;;;-2.14;88.64
29907;BME280;16776;50.958;10.994;2022-12-18T12:38:27;99831.75;;;-2.20;88.65
29907;BME280;16776;50.958;10.994;2022-12-18T12:40:59;99845.94;;;-2.22;87.67
29907;BME280;16776;50.958;10.994;2022-12-18T12:43:30;99849.16;;;-2.26;87.34
29907;BME280;16776;50.958;10.994;2022-12-18T12:46:03;99856.97;;;-2.39;87.92
29907;BME280;16776;50.958;10.994;2022-12-18T12:48:38;99851.50;;;-2.48;87.26
29907;BME280;16776;50.958;10.994;2022-12-18T12:51:12;99861.91;;;-2.60;87.57
29907;BME280;16776;50.958;10.994;2022-12-18T12:53:40;99867.09;;;-2.74;87.83
29907;BME280;16776;50.958;10.994;2022-12-18T12:56:10;99850.63;;;-2.85;87.51
29907;BME280;16776;50.958;10.994;2022-12-18T12:58:44;99846.88;;;-2.93;87.06
29907;BME280;16776;50.958;10.994;2022-12-18T13:01:20;99840.34;;;-3.08;86.69
29907;BME280;16776;50.958;10.994;2022-12-18T13:03:55;99842.34;;;-3.18;87.26